Alice, Texas
Current Conditions -  °F | °C
As of 9:53 AM on Thursday 23 Oct 2014 (Local Time) from KALI Reporting Station
Scattered Clouds Scattered Clouds  
Wind Chill: 73°   Ceiling: Unl
Heat Index: 73°   Visibility: 10mi
Dew Point: 64°   Wind: 9mph
Humidity: 73%   Direction: 30°NNE
Pressure: 30.11"   Gusts: NA
Location:  27.75°N, 98.06°W
Report Text: KALI 231453Z AUTO 03008KT 10SM SCT100 23/18 A3011 RMK AO2 SLP194 T02280178 52020
Loading
Personal Weather Stations






























Interactive Weather Map
Tropical Storm Tracking
New forecast layout! Learn more

10-Day Weather Forecast

Advertisements
Track Severe Weather on mobile